sensor_id;sensor_type;location;lat;lon;timestamp;P1;durP1;ratioP1;P2;durP2;ratioP2
60869;SDS011;46710;43.680;4.132;2023-01-24T00:02:11;0.30;;;0.30;;
60869;SDS011;46710;43.680;4.132;2023-01-24T00:04:37;1.00;;;0.88;;
60869;SDS011;46710;43.680;4.132;2023-01-24T00:07:03;0.60;;;0.37;;
60869;SDS011;46710;43.680;4.132;2023-01-24T00:09:29;0.20;;;0.20;;
60869;SDS011;46710;43.680;4.132;2023-01-24T00:11:55;0.52;;;0.52;;
60869;SDS011;46710;43.680;4.132;2023-01-24T00:14:21;0.52;;;0.52;;
60869;SDS011;46710;43.680;4.132;2023-01-24T00:16:47;0.68;;;0.55;;
60869;SDS011;46710;43.680;4.132;2023-01-24T00:19:14;0.40;;;0.40;;
60869;SDS011;46710;43.680;4.132;2023-01-24T00:21:40;0.20;;;0.20;;
60869;SDS011;46710;43.680;4.132;2023-01-24T00:24:06;0.20;;;0.20;;
60869;SDS011;46710;43.680;4.132;2023-01-24T00:26:32;0.57;;;0.52;;
60869;SDS011;46710;43.680;4.132;2023-01-24T00:28:58;2.62;;;0.90;;
60869;SDS011;46710;43.680;4.132;2023-01-24T00:31:25;0.37;;;0.37;;
60869;SDS011;46710;43.680;4.132;2023-01-24T00:33:51;0.50;;;0.43;;
60869;SDS011;46710;43.680;4.132;2023-01-24T00:36:17;0.30;;;0.30;;
60869;SDS011;46710;43.680;4.132;2023-01-24T00:38:43;0.20;;;0.20;;
60869;SDS011;46710;43.680;4.132;2023-01-24T00:41:09;0.40;;;0.40;;
60869;SDS011;46710;43.680;4.132;2023-01-24T00:43:35;0.50;;;0.50;;
60869;SDS011;46710;43.680;4.132;2023-01-24T00:46:04;0.52;;;0.52;;
60869;SDS011;46710;43.680;4.132;2023-01-24T00:48:31;0.80;;;0.80;;
60869;SDS011;46710;43.680;4.132;2023-01-24T00:50:57;0.62;;;0.57;;
60869;SDS011;46710;43.680;4.132;2023-01-24T00:53:23;1.87;;;1.17;;
60869;SDS011;46710;43.680;4.132;2023-01-24T00:55:51;0.55;;;0.55;;
60869;SDS011;46710;43.680;4.132;2023-01-24T00:58:19;0.40;;;0.40;;
60869;SDS011;46710;43.680;4.132;2023-01-24T01:00:46;0.52;;;0.52;;
60869;SDS011;46710;43.680;4.132;2023-01-24T01:03:16;0.30;;;0.30;;
60869;SDS011;46710;43.680;4.132;2023-01-24T01:05:42;0.77;;;0.40;;
60869;SDS011;46710;43.680;4.132;2023-01-24T01:08:09;0.93;;;0.88;;
60869;SDS011;46710;43.680;4.132;2023-01-24T01:10:35;0.52;;;0.40;;
60869;SDS011;46710;43.680;4.132;2023-01-24T01:13:01;1.62;;;1.02;;
60869;SDS011;46710;43.680;4.132;2023-01-24T01:15:28;2.95;;;1.10;;
60869;SDS011;46710;43.680;4.132;2023-01-24T01:17:54;1.92;;;1.02;;
60869;SDS011;46710;43.680;4.132;2023-01-24T01:20:20;0.30;;;0.30;;
60869;SDS011;46710;43.680;4.132;2023-01-24T01:22:47;0.55;;;0.55;;
60869;SDS011;46710;43.680;4.132;2023-01-24T01:25:13;0.85;;;0.73;;
60869;SDS011;46710;43.680;4.132;2023-01-24T01:27:39;4.18;;;1.45;;
60869;SDS011;46710;43.680;4.132;2023-01-24T01:30:05;0.15;;;0.15;;
60869;SDS011;46710;43.680;4.132;2023-01-24T01:32:32;1.35;;;0.85;;
60869;SDS011;46710;43.680;4.132;2023-01-24T01:34:58;0.30;;;0.30;;
60869;SDS011;46710;43.680;4.132;2023-01-24T01:37:24;3.90;;;0.85;;
60869;SDS011;46710;43.680;4.132;2023-01-24T01:39:50;2.53;;;0.57;;
60869;SDS011;46710;43.680;4.132;2023-01-24T01:42:16;1.27;;;0.88;;
60869;SDS011;46710;43.680;4.132;2023-01-24T01:44:43;3.12;;;0.65;;
60869;SDS011;46710;43.680;4.132;2023-01-24T01:47:26;0.82;;;0.70;;
60869;SDS011;46710;43.680;4.132;2023-01-24T01:52:19;2.17;;;0.75;;
60869;SDS011;46710;43.680;4.132;2023-01-24T01:54:47;0.45;;;0.45;;
60869;SDS011;46710;43.680;4.132;2023-01-24T01:57:16;0.60;;;0.57;;
60869;SDS011;46710;43.680;4.132;2023-01-24T01:59:47;0.95;;;0.73;;
60869;SDS011;46710;43.680;4.132;2023-01-24T02:02:15;0.35;;;0.35;;
60869;SDS011;46710;43.680;4.132;2023-01-24T02:04:44;1.65;;;1.55;;
60869;SDS011;46710;43.680;4.132;2023-01-24T02:09:56;1.45;;;1.35;;
60869;SDS011;46710;43.680;4.132;2023-01-24T02:12:24;0.37;;;0.37;;
60869;SDS011;46710;43.680;4.132;2023-01-24T02:14:53;0.80;;;0.77;;
60869;SDS011;46710;43.680;4.132;2023-01-24T02:17:38;0.98;;;0.93;;
60869;SDS011;46710;43.680;4.132;2023-01-24T02:25:09;0.90;;;0.55;;
60869;SDS011;46710;43.680;4.132;2023-01-24T02:27:38;0.32;;;0.32;;
60869;SDS011;46710;43.680;4.132;2023-01-24T02:30:05;0.62;;;0.62;;
60869;SDS011;46710;43.680;4.132;2023-01-24T02:32:31;0.60;;;0.60;;
60869;SDS011;46710;43.680;4.132;2023-01-24T02:34:57;0.47;;;0.47;;
60869;SDS011;46710;43.680;4.132;2023-01-24T02:37:23;0.85;;;0.62;;
60869;SDS011;46710;43.680;4.132;2023-01-24T02:39:55;0.85;;;0.50;;
60869;SDS011;46710;43.680;4.132;2023-01-24T02:42:23;0.30;;;0.30;;
60869;SDS011;46710;43.680;4.132;2023-01-24T02:45:25;1.10;;;0.93;;
60869;SDS011;46710;43.680;4.132;2023-01-24T02:47:47;0.88;;;0.70;;
60869;SDS011;46710;43.680;4.132;2023-01-24T02:50:15;0.55;;;0.55;;
60869;SDS011;46710;43.680;4.132;2023-01-24T02:52:41;0.37;;;0.37;;
60869;SDS011;46710;43.680;4.132;2023-01-24T02:55:26;0.62;;;0.62;;
60869;SDS011;46710;43.680;4.132;2023-01-24T02:57:52;3.83;;;0.60;;
60869;SDS011;46710;43.680;4.132;2023-01-24T03:00:37;0.35;;;0.35;;
60869;SDS011;46710;43.680;4.132;2023-01-24T03:03:04;0.30;;;0.30;;
60869;SDS011;46710;43.680;4.132;2023-01-24T03:05:31;0.75;;;0.75;;
60869;SDS011;46710;43.680;4.132;2023-01-24T03:08:31;2.55;;;0.70;;
60869;SDS011;46710;43.680;4.132;2023-01-24T03:10:57;1.37;;;1.00;;
60869;SDS011;46710;43.680;4.132;2023-01-24T03:13:24;0.70;;;0.70;;
60869;SDS011;46710;43.680;4.132;2023-01-24T03:16:09;0.37;;;0.37;;
60869;SDS011;46710;43.680;4.132;2023-01-24T03:18:54;0.30;;;0.30;;
60869;SDS011;46710;43.680;4.132;2023-01-24T03:21:39;0.85;;;0.85;;
60869;SDS011;46710;43.680;4.132;2023-01-24T03:24:24;1.45;;;0.40;;
60869;SDS011;46710;43.680;4.132;2023-01-24T03:27:09;0.85;;;0.43;;
60869;SDS011;46710;43.680;4.132;2023-01-24T03:29:53;0.57;;;0.40;;
60869;SDS011;46710;43.680;4.132;2023-01-24T03:32:38;0.40;;;0.40;;
60869;SDS011;46710;43.680;4.132;2023-01-24T03:35:23;1.45;;;1.12;;
60869;SDS011;46710;43.680;4.132;2023-01-24T03:37:49;0.95;;;0.60;;
60869;SDS011;46710;43.680;4.132;2023-01-24T03:40:33;5.28;;;0.90;;
60869;SDS011;46710;43.680;4.132;2023-01-24T03:43:00;1.55;;;0.70;;
60869;SDS011;46710;43.680;4.132;2023-01-24T03:45:27;0.28;;;0.28;;
60869;SDS011;46710;43.680;4.132;2023-01-24T04:00:57;2.47;;;0.60;;
60869;SDS011;46710;43.680;4.132;2023-01-24T04:03:24;1.52;;;0.75;;
60869;SDS011;46710;43.680;4.132;2023-01-24T04:05:50;0.85;;;0.82;;
60869;SDS011;46710;43.680;4.132;2023-01-24T04:08:17;1.17;;;0.57;;
60869;SDS011;46710;43.680;4.132;2023-01-24T04:10:43;2.37;;;0.93;;
60869;SDS011;46710;43.680;4.132;2023-01-24T04:13:10;0.65;;;0.65;;
60869;SDS011;46710;43.680;4.132;2023-01-24T04:15:36;1.52;;;1.40;;
60869;SDS011;46710;43.680;4.132;2023-01-24T04:18:03;1.62;;;0.82;;
60869;SDS011;46710;43.680;4.132;2023-01-24T04:20:31;1.60;;;1.50;;
60869;SDS011;46710;43.680;4.132;2023-01-24T04:23:01;1.77;;;0.70;;
60869;SDS011;46710;43.680;4.132;2023-01-24T04:25:27;2.20;;;0.75;;
60869;SDS011;46710;43.680;4.132;2023-01-24T04:27:53;1.65;;;0.40;;
60869;SDS011;46710;43.680;4.132;2023-01-24T04:30:19;0.45;;;0.43;;
60869;SDS011;46710;43.680;4.132;2023-01-24T04:32:45;0.50;;;0.50;;
60869;SDS011;46710;43.680;4.132;2023-01-24T04:35:16;0.37;;;0.37;;
60869;SDS011;46710;43.680;4.132;2023-01-24T04:37:42;0.28;;;0.28;;
60869;SDS011;46710;43.680;4.132;2023-01-24T04:40:08;1.02;;;0.95;;
60869;SDS011;46710;43.680;4.132;2023-01-24T04:42:34;0.20;;;0.20;;
60869;SDS011;46710;43.680;4.132;2023-01-24T04:45:03;0.57;;;0.57;;
60869;SDS011;46710;43.680;4.132;2023-01-24T04:47:29;0.68;;;0.68;;
60869;SDS011;46710;43.680;4.132;2023-01-24T04:49:55;1.00;;;0.85;;
60869;SDS011;46710;43.680;4.132;2023-01-24T04:52:21;0.40;;;0.40;;
60869;SDS011;46710;43.680;4.132;2023-01-24T04:54:47;1.60;;;1.10;;
60869;SDS011;46710;43.680;4.132;2023-01-24T04:57:14;1.10;;;0.90;;
60869;SDS011;46710;43.680;4.132;2023-01-24T04:59:40;0.93;;;0.88;;
60869;SDS011;46710;43.680;4.132;2023-01-24T05:02:06;0.45;;;0.45;;
60869;SDS011;46710;43.680;4.132;2023-01-24T05:04:32;0.45;;;0.43;;
60869;SDS011;46710;43.680;4.132;2023-01-24T05:06:58;0.30;;;0.30;;
60869;SDS011;46710;43.680;4.132;2023-01-24T05:09:24;1.05;;;1.00;;
60869;SDS011;46710;43.680;4.132;2023-01-24T05:11:50;0.62;;;0.62;;
60869;SDS011;46710;43.680;4.132;2023-01-24T05:14:17;0.68;;;0.68;;
60869;SDS011;46710;43.680;4.132;2023-01-24T05:16:43;0.30;;;0.30;;
60869;SDS011;46710;43.680;4.132;2023-01-24T05:19:09;2.42;;;1.25;;
60869;SDS011;46710;43.680;4.132;2023-01-24T05:21:35;1.77;;;0.95;;
60869;SDS011;46710;43.680;4.132;2023-01-24T05:24:01;1.98;;;0.80;;
60869;SDS011;46710;43.680;4.132;2023-01-24T05:26:28;0.88;;;0.65;;
60869;SDS011;46710;43.680;4.132;2023-01-24T05:28:54;1.87;;;1.00;;
60869;SDS011;46710;43.680;4.132;2023-01-24T05:31:20;0.57;;;0.45;;
60869;SDS011;46710;43.680;4.132;2023-01-24T05:33:46;0.60;;;0.60;;
60869;SDS011;46710;43.680;4.132;2023-01-24T05:36:16;0.28;;;0.28;;
60869;SDS011;46710;43.680;4.132;2023-01-24T05:38:42;0.88;;;0.88;;
60869;SDS011;46710;43.680;4.132;2023-01-24T05:41:10;0.47;;;0.45;;
60869;SDS011;46710;43.680;4.132;2023-01-24T05:43:37;0.40;;;0.37;;
60869;SDS011;46710;43.680;4.132;2023-01-24T05:46:07;0.45;;;0.45;;
60869;SDS011;46710;43.680;4.132;2023-01-24T05:48:34;0.83;;;0.40;;
60869;SDS011;46710;43.680;4.132;2023-01-24T05:51:05;1.15;;;0.80;;
60869;SDS011;46710;43.680;4.132;2023-01-24T05:53:32;0.95;;;0.73;;
60869;SDS011;46710;43.680;4.132;2023-01-24T05:55:59;0.60;;;0.60;;
60869;SDS011;46710;43.680;4.132;2023-01-24T05:58:28;0.73;;;0.73;;
60869;SDS011;46710;43.680;4.132;2023-01-24T06:00:55;0.43;;;0.43;;
60869;SDS011;46710;43.680;4.132;2023-01-24T06:03:21;0.17;;;0.17;;
60869;SDS011;46710;43.680;4.132;2023-01-24T06:05:48;0.60;;;0.60;;
60869;SDS011;46710;43.680;4.132;2023-01-24T06:08:15;0.52;;;0.28;;
60869;SDS011;46710;43.680;4.132;2023-01-24T06:10:41;2.28;;;1.05;;
60869;SDS011;46710;43.680;4.132;2023-01-24T06:13:08;1.25;;;0.80;;
60869;SDS011;46710;43.680;4.132;2023-01-24T06:15:34;0.73;;;0.73;;
60869;SDS011;46710;43.680;4.132;2023-01-24T06:18:01;0.57;;;0.57;;
60869;SDS011;46710;43.680;4.132;2023-01-24T06:20:27;0.68;;;0.68;;
60869;SDS011;46710;43.680;4.132;2023-01-24T06:22:54;0.25;;;0.25;;
60869;SDS011;46710;43.680;4.132;2023-01-24T06:25:23;2.17;;;1.15;;
60869;SDS011;46710;43.680;4.132;2023-01-24T06:27:50;0.45;;;0.45;;
60869;SDS011;46710;43.680;4.132;2023-01-24T06:30:17;4.37;;;0.68;;
60869;SDS011;46710;43.680;4.132;2023-01-24T06:37:49;1.98;;;0.73;;
60869;SDS011;46710;43.680;4.132;2023-01-24T06:40:17;1.02;;;0.93;;
60869;SDS011;46710;43.680;4.132;2023-01-24T06:42:43;3.22;;;1.00;;
60869;SDS011;46710;43.680;4.132;2023-01-24T06:45:11;0.40;;;0.40;;
60869;SDS011;46710;43.680;4.132;2023-01-24T06:47:37;0.70;;;0.30;;
60869;SDS011;46710;43.680;4.132;2023-01-24T06:50:04;2.90;;;1.17;;
60869;SDS011;46710;43.680;4.132;2023-01-24T06:52:33;1.83;;;1.17;;
60869;SDS011;46710;43.680;4.132;2023-01-24T06:54:59;0.28;;;0.28;;
60869;SDS011;46710;43.680;4.132;2023-01-24T06:57:25;0.65;;;0.65;;
60869;SDS011;46710;43.680;4.132;2023-01-24T06:59:51;0.50;;;0.50;;
60869;SDS011;46710;43.680;4.132;2023-01-24T07:02:18;3.42;;;0.75;;
60869;SDS011;46710;43.680;4.132;2023-01-24T07:04:44;0.80;;;0.77;;
60869;SDS011;46710;43.680;4.132;2023-01-24T07:07:10;0.40;;;0.40;;
60869;SDS011;46710;43.680;4.132;2023-01-24T07:09:36;0.85;;;0.85;;
60869;SDS011;46710;43.680;4.132;2023-01-24T07:12:02;1.33;;;0.62;;
60869;SDS011;46710;43.680;4.132;2023-01-24T07:14:28;0.80;;;0.60;;
60869;SDS011;46710;43.680;4.132;2023-01-24T07:16:55;0.65;;;0.62;;
60869;SDS011;46710;43.680;4.132;2023-01-24T07:19:21;0.73;;;0.73;;
60869;SDS011;46710;43.680;4.132;2023-01-24T07:21:49;0.98;;;0.47;;
60869;SDS011;46710;43.680;4.132;2023-01-24T07:24:18;2.08;;;0.70;;
60869;SDS011;46710;43.680;4.132;2023-01-24T07:26:45;0.62;;;0.62;;
60869;SDS011;46710;43.680;4.132;2023-01-24T07:29:13;3.30;;;1.40;;
60869;SDS011;46710;43.680;4.132;2023-01-24T07:31:39;1.90;;;1.33;;
60869;SDS011;46710;43.680;4.132;2023-01-24T07:34:05;1.37;;;1.30;;
60869;SDS011;46710;43.680;4.132;2023-01-24T07:36:32;0.90;;;0.82;;
60869;SDS011;46710;43.680;4.132;2023-01-24T07:38:58;1.05;;;1.00;;
60869;SDS011;46710;43.680;4.132;2023-01-24T07:41:24;1.17;;;0.95;;
60869;SDS011;46710;43.680;4.132;2023-01-24T07:43:50;1.65;;;0.60;;
60869;SDS011;46710;43.680;4.132;2023-01-24T07:46:17;0.80;;;0.80;;
60869;SDS011;46710;43.680;4.132;2023-01-24T07:48:43;1.58;;;1.48;;
60869;SDS011;46710;43.680;4.132;2023-01-24T07:51:09;0.70;;;0.70;;
60869;SDS011;46710;43.680;4.132;2023-01-24T07:53:35;0.90;;;0.75;;
60869;SDS011;46710;43.680;4.132;2023-01-24T07:56:02;1.27;;;0.85;;
60869;SDS011;46710;43.680;4.132;2023-01-24T07:58:29;1.85;;;0.75;;
60869;SDS011;46710;43.680;4.132;2023-01-24T08:00:55;0.98;;;0.95;;
60869;SDS011;46710;43.680;4.132;2023-01-24T08:03:21;1.00;;;1.00;;
60869;SDS011;46710;43.680;4.132;2023-01-24T08:05:48;2.28;;;1.27;;
60869;SDS011;46710;43.680;4.132;2023-01-24T08:08:14;4.90;;;2.28;;
60869;SDS011;46710;43.680;4.132;2023-01-24T08:10:40;6.50;;;3.47;;
60869;SDS011;46710;43.680;4.132;2023-01-24T08:13:06;0.68;;;0.68;;
60869;SDS011;46710;43.680;4.132;2023-01-24T08:15:33;1.37;;;0.77;;
60869;SDS011;46710;43.680;4.132;2023-01-24T08:18:01;3.45;;;1.48;;
60869;SDS011;46710;43.680;4.132;2023-01-24T08:20:27;1.73;;;1.30;;
60869;SDS011;46710;43.680;4.132;2023-01-24T08:22:54;0.55;;;0.52;;
60869;SDS011;46710;43.680;4.132;2023-01-24T08:25:24;0.93;;;0.90;;
60869;SDS011;46710;43.680;4.132;2023-01-24T08:30:19;4.18;;;2.87;;
60869;SDS011;46710;43.680;4.132;2023-01-24T08:32:45;5.87;;;4.70;;
60869;SDS011;46710;43.680;4.132;2023-01-24T08:35:11;30.17;;;9.50;;
60869;SDS011;46710;43.680;4.132;2023-01-24T08:37:37;23.08;;;11.95;;
60869;SDS011;46710;43.680;4.132;2023-01-24T08:40:04;9.68;;;6.20;;
60869;SDS011;46710;43.680;4.132;2023-01-24T08:42:31;2.40;;;1.42;;
60869;SDS011;46710;43.680;4.132;2023-01-24T08:44:57;5.65;;;3.70;;
60869;SDS011;46710;43.680;4.132;2023-01-24T08:47:24;2.90;;;2.05;;
60869;SDS011;46710;43.680;4.132;2023-01-24T08:49:50;2.58;;;2.20;;
60869;SDS011;46710;43.680;4.132;2023-01-24T08:52:16;1.42;;;1.17;;
60869;SDS011;46710;43.680;4.132;2023-01-24T08:54:43;0.70;;;0.70;;
60869;SDS011;46710;43.680;4.132;2023-01-24T08:57:09;1.17;;;0.95;;
60869;SDS011;46710;43.680;4.132;2023-01-24T08:59:35;0.62;;;0.62;;
60869;SDS011;46710;43.680;4.132;2023-01-24T09:02:01;0.98;;;0.82;;
60869;SDS011;46710;43.680;4.132;2023-01-24T09:04:29;2.30;;;1.48;;
60869;SDS011;46710;43.680;4.132;2023-01-24T09:06:55;1.65;;;1.12;;
60869;SDS011;46710;43.680;4.132;2023-01-24T09:09:22;3.10;;;1.08;;
60869;SDS011;46710;43.680;4.132;2023-01-24T09:11:49;0.65;;;0.65;;
60869;SDS011;46710;43.680;4.132;2023-01-24T09:14:17;2.22;;;1.50;;
60869;SDS011;46710;43.680;4.132;2023-01-24T09:16:43;2.05;;;0.60;;
60869;SDS011;46710;43.680;4.132;2023-01-24T09:19:15;2.35;;;1.30;;
60869;SDS011;46710;43.680;4.132;2023-01-24T09:21:41;2.03;;;0.77;;
60869;SDS011;46710;43.680;4.132;2023-01-24T09:24:09;1.98;;;1.05;;
60869;SDS011;46710;43.680;4.132;2023-01-24T09:26:36;1.00;;;0.88;;
60869;SDS011;46710;43.680;4.132;2023-01-24T09:29:02;1.05;;;0.95;;
60869;SDS011;46710;43.680;4.132;2023-01-24T09:31:28;0.60;;;0.60;;
60869;SDS011;46710;43.680;4.132;2023-01-24T09:33:54;0.85;;;0.80;;
60869;SDS011;46710;43.680;4.132;2023-01-24T09:36:20;1.52;;;1.23;;
60869;SDS011;46710;43.680;4.132;2023-01-24T09:38:46;0.88;;;0.80;;
60869;SDS011;46710;43.680;4.132;2023-01-24T09:43:52;3.35;;;1.37;;
60869;SDS011;46710;43.680;4.132;2023-01-24T09:46:26;1.35;;;1.10;;
60869;SDS011;46710;43.680;4.132;2023-01-24T09:51:43;2.12;;;1.95;;
60869;SDS011;46710;43.680;4.132;2023-01-24T09:54:15;0.52;;;0.52;;
60869;SDS011;46710;43.680;4.132;2023-01-24T09:56:43;4.05;;;1.02;;
60869;SDS011;46710;43.680;4.132;2023-01-24T10:01:43;1.12;;;1.00;;
60869;SDS011;46710;43.680;4.132;2023-01-24T10:04:12;1.83;;;1.17;;
60869;SDS011;46710;43.680;4.132;2023-01-24T10:06:39;1.25;;;1.12;;
60869;SDS011;46710;43.680;4.132;2023-01-24T10:09:31;0.43;;;0.43;;
60869;SDS011;46710;43.680;4.132;2023-01-24T10:25:14;0.55;;;0.55;;
60869;SDS011;46710;43.680;4.132;2023-01-24T10:30:13;9.07;;;1.40;;
60869;SDS011;46710;43.680;4.132;2023-01-24T10:32:39;1.35;;;1.25;;
60869;SDS011;46710;43.680;4.132;2023-01-24T10:35:52;4.37;;;1.08;;
60869;SDS011;46710;43.680;4.132;2023-01-24T10:37:58;1.85;;;1.40;;
60869;SDS011;46710;43.680;4.132;2023-01-24T10:40:26;0.75;;;0.73;;
60869;SDS011;46710;43.680;4.132;2023-01-24T10:42:52;1.48;;;0.57;;
60869;SDS011;46710;43.680;4.132;2023-01-24T10:47:49;2.78;;;1.55;;
60869;SDS011;46710;43.680;4.132;2023-01-24T10:50:22;6.28;;;0.68;;
60869;SDS011;46710;43.680;4.132;2023-01-24T10:52:51;1.65;;;1.55;;
60869;SDS011;46710;43.680;4.132;2023-01-24T10:57:52;0.50;;;0.50;;
60869;SDS011;46710;43.680;4.132;2023-01-24T11:00:23;5.93;;;1.60;;
60869;SDS011;46710;43.680;4.132;2023-01-24T11:02:53;0.35;;;0.35;;
60869;SDS011;46710;43.680;4.132;2023-01-24T11:05:20;2.92;;;1.08;;
60869;SDS011;46710;43.680;4.132;2023-01-24T11:07:51;1.48;;;0.82;;
60869;SDS011;46710;43.680;4.132;2023-01-24T11:12:59;0.57;;;0.57;;
60869;SDS011;46710;43.680;4.132;2023-01-24T11:15:30;0.85;;;0.85;;
60869;SDS011;46710;43.680;4.132;2023-01-24T11:17:58;1.80;;;0.77;;
60869;SDS011;46710;43.680;4.132;2023-01-24T11:20:29;0.88;;;0.82;;
60869;SDS011;46710;43.680;4.132;2023-01-24T11:23:03;0.40;;;0.40;;
60869;SDS011;46710;43.680;4.132;2023-01-24T11:25:29;0.57;;;0.57;;
60869;SDS011;46710;43.680;4.132;2023-01-24T11:27:55;1.50;;;0.82;;
60869;SDS011;46710;43.680;4.132;2023-01-24T11:30:24;1.80;;;1.33;;
60869;SDS011;46710;43.680;4.132;2023-01-24T11:33:02;3.87;;;2.17;;
60869;SDS011;46710;43.680;4.132;2023-01-24T11:35:34;1.20;;;1.10;;
60869;SDS011;46710;43.680;4.132;2023-01-24T11:54:17;1.65;;;1.27;;
60869;SDS011;46710;43.680;4.132;2023-01-24T11:59:24;1.17;;;1.08;;
60869;SDS011;46710;43.680;4.132;2023-01-24T12:22:38;0.50;;;0.50;;
60869;SDS011;46710;43.680;4.132;2023-01-24T12:25:27;1.52;;;1.33;;
60869;SDS011;46710;43.680;4.132;2023-01-24T12:27:55;0.40;;;0.40;;
60869;SDS011;46710;43.680;4.132;2023-01-24T12:30:28;0.50;;;0.50;;
60869;SDS011;46710;43.680;4.132;2023-01-24T12:33:05;1.90;;;0.77;;
60869;SDS011;46710;43.680;4.132;2023-01-24T12:35:44;1.52;;;1.42;;
60869;SDS011;46710;43.680;4.132;2023-01-24T12:40:50;1.10;;;0.60;;
60869;SDS011;46710;43.680;4.132;2023-01-24T12:46:09;1.15;;;1.12;;
60869;SDS011;46710;43.680;4.132;2023-01-24T12:48:53;2.47;;;1.00;;
60869;SDS011;46710;43.680;4.132;2023-01-24T12:54:14;1.77;;;0.82;;
60869;SDS011;46710;43.680;4.132;2023-01-24T12:59:18;0.75;;;0.73;;
60869;SDS011;46710;43.680;4.132;2023-01-24T13:04:42;0.68;;;0.60;;
60869;SDS011;46710;43.680;4.132;2023-01-24T13:12:36;2.60;;;1.50;;
60869;SDS011;46710;43.680;4.132;2023-01-24T13:17:50;1.35;;;1.08;;
60869;SDS011;46710;43.680;4.132;2023-01-24T13:33:19;1.55;;;0.70;;
60869;SDS011;46710;43.680;4.132;2023-01-24T13:35:50;0.60;;;0.60;;
60869;SDS011;46710;43.680;4.132;2023-01-24T13:38:24;0.40;;;0.40;;
60869;SDS011;46710;43.680;4.132;2023-01-24T13:40:58;0.80;;;0.80;;
60869;SDS011;46710;43.680;4.132;2023-01-24T13:46:10;0.60;;;0.60;;
60869;SDS011;46710;43.680;4.132;2023-01-24T13:48:44;2.65;;;1.37;;
60869;SDS011;46710;43.680;4.132;2023-01-24T13:54:02;0.35;;;0.35;;
60869;SDS011;46710;43.680;4.132;2023-01-24T13:56:29;0.45;;;0.43;;
60869;SDS011;46710;43.680;4.132;2023-01-24T13:58:56;0.50;;;0.50;;
60869;SDS011;46710;43.680;4.132;2023-01-24T14:01:23;0.88;;;0.88;;
60869;SDS011;46710;43.680;4.132;2023-01-24T14:03:58;1.80;;;1.35;;
60869;SDS011;46710;43.680;4.132;2023-01-24T14:06:26;0.98;;;0.98;;
60869;SDS011;46710;43.680;4.132;2023-01-24T14:11:46;1.08;;;0.90;;
60869;SDS011;46710;43.680;4.132;2023-01-24T14:14:26;0.85;;;0.80;;
60869;SDS011;46710;43.680;4.132;2023-01-24T14:19:24;1.12;;;0.52;;
60869;SDS011;46710;43.680;4.132;2023-01-24T14:27:00;0.43;;;0.43;;
60869;SDS011;46710;43.680;4.132;2023-01-24T14:29:35;1.55;;;1.05;;
60869;SDS011;46710;43.680;4.132;2023-01-24T14:32:03;1.05;;;1.02;;
60869;SDS011;46710;43.680;4.132;2023-01-24T14:34:33;0.95;;;0.68;;
60869;SDS011;46710;43.680;4.132;2023-01-24T14:37:02;0.55;;;0.55;;
60869;SDS011;46710;43.680;4.132;2023-01-24T14:39:29;0.60;;;0.60;;
60869;SDS011;46710;43.680;4.132;2023-01-24T14:41:57;0.52;;;0.52;;
60869;SDS011;46710;43.680;4.132;2023-01-24T14:44:28;1.12;;;1.05;;
60869;SDS011;46710;43.680;4.132;2023-01-24T14:46:59;1.92;;;1.42;;
60869;SDS011;46710;43.680;4.132;2023-01-24T14:51:55;1.05;;;0.73;;
60869;SDS011;46710;43.680;4.132;2023-01-24T14:54:22;3.08;;;1.10;;
60869;SDS011;46710;43.680;4.132;2023-01-24T14:56:48;1.50;;;0.95;;
60869;SDS011;46710;43.680;4.132;2023-01-24T14:59:17;3.65;;;1.37;;
60869;SDS011;46710;43.680;4.132;2023-01-24T15:01:45;1.55;;;0.88;;
60869;SDS011;46710;43.680;4.132;2023-01-24T15:04:22;0.82;;;0.82;;
60869;SDS011;46710;43.680;4.132;2023-01-24T15:07:04;1.65;;;1.30;;
60869;SDS011;46710;43.680;4.132;2023-01-24T15:09:31;0.80;;;0.80;;
60869;SDS011;46710;43.680;4.132;2023-01-24T15:12:09;0.70;;;0.70;;
60869;SDS011;46710;43.680;4.132;2023-01-24T15:14:36;1.77;;;0.52;;
60869;SDS011;46710;43.680;4.132;2023-01-24T15:17:02;1.42;;;1.23;;
60869;SDS011;46710;43.680;4.132;2023-01-24T15:19:28;0.43;;;0.43;;
60869;SDS011;46710;43.680;4.132;2023-01-24T15:21:55;4.10;;;1.25;;
60869;SDS011;46710;43.680;4.132;2023-01-24T15:26:50;0.93;;;0.85;;
60869;SDS011;46710;43.680;4.132;2023-01-24T15:30:01;2.45;;;0.98;;
60869;SDS011;46710;43.680;4.132;2023-01-24T15:34:45;0.43;;;0.43;;
60869;SDS011;46710;43.680;4.132;2023-01-24T15:37:12;0.65;;;0.65;;
60869;SDS011;46710;43.680;4.132;2023-01-24T15:39:39;0.30;;;0.30;;
60869;SDS011;46710;43.680;4.132;2023-01-24T15:42:06;1.23;;;1.15;;
60869;SDS011;46710;43.680;4.132;2023-01-24T15:44:50;0.40;;;0.40;;
60869;SDS011;46710;43.680;4.132;2023-01-24T15:47:18;0.62;;;0.62;;
60869;SDS011;46710;43.680;4.132;2023-01-24T15:50:14;2.20;;;1.65;;
60869;SDS011;46710;43.680;4.132;2023-01-24T15:55:44;1.48;;;1.37;;
60869;SDS011;46710;43.680;4.132;2023-01-24T15:58:10;0.70;;;0.70;;
60869;SDS011;46710;43.680;4.132;2023-01-24T16:00:36;0.47;;;0.47;;
60869;SDS011;46710;43.680;4.132;2023-01-24T16:03:03;1.10;;;0.93;;
60869;SDS011;46710;43.680;4.132;2023-01-24T16:05:29;1.70;;;1.00;;
60869;SDS011;46710;43.680;4.132;2023-01-24T16:07:55;1.60;;;0.88;;
60869;SDS011;46710;43.680;4.132;2023-01-24T16:10:21;0.65;;;0.65;;
60869;SDS011;46710;43.680;4.132;2023-01-24T16:12:48;1.02;;;0.93;;
60869;SDS011;46710;43.680;4.132;2023-01-24T16:15:16;1.15;;;0.80;;
60869;SDS011;46710;43.680;4.132;2023-01-24T16:17:42;0.98;;;0.95;;
60869;SDS011;46710;43.680;4.132;2023-01-24T16:22:44;3.87;;;0.60;;
60869;SDS011;46710;43.680;4.132;2023-01-24T16:25:11;0.73;;;0.73;;
60869;SDS011;46710;43.680;4.132;2023-01-24T16:27:37;4.03;;;1.02;;
60869;SDS011;46710;43.680;4.132;2023-01-24T16:30:05;3.62;;;1.45;;
60869;SDS011;46710;43.680;4.132;2023-01-24T16:32:31;1.42;;;1.02;;
60869;SDS011;46710;43.680;4.132;2023-01-24T16:34:58;0.73;;;0.73;;
60869;SDS011;46710;43.680;4.132;2023-01-24T16:37:24;0.85;;;0.85;;
60869;SDS011;46710;43.680;4.132;2023-01-24T16:39:50;0.70;;;0.70;;
60869;SDS011;46710;43.680;4.132;2023-01-24T16:42:17;1.92;;;1.00;;
60869;SDS011;46710;43.680;4.132;2023-01-24T16:44:54;0.45;;;0.45;;
60869;SDS011;46710;43.680;4.132;2023-01-24T16:47:20;3.42;;;1.27;;
60869;SDS011;46710;43.680;4.132;2023-01-24T16:49:51;5.03;;;1.25;;
60869;SDS011;46710;43.680;4.132;2023-01-24T16:52:17;1.62;;;1.08;;
60869;SDS011;46710;43.680;4.132;2023-01-24T16:54:43;1.80;;;1.33;;
60869;SDS011;46710;43.680;4.132;2023-01-24T16:57:09;1.55;;;1.27;;
60869;SDS011;46710;43.680;4.132;2023-01-24T16:59:35;2.58;;;1.05;;
60869;SDS011;46710;43.680;4.132;2023-01-24T17:02:02;2.08;;;1.87;;
60869;SDS011;46710;43.680;4.132;2023-01-24T17:04:28;1.23;;;0.82;;
60869;SDS011;46710;43.680;4.132;2023-01-24T17:06:54;1.87;;;1.52;;
60869;SDS011;46710;43.680;4.132;2023-01-24T17:09:30;0.57;;;0.57;;
60869;SDS011;46710;43.680;4.132;2023-01-24T17:11:56;2.28;;;1.67;;
60869;SDS011;46710;43.680;4.132;2023-01-24T17:14:22;1.08;;;0.82;;
60869;SDS011;46710;43.680;4.132;2023-01-24T17:16:48;1.80;;;1.65;;
60869;SDS011;46710;43.680;4.132;2023-01-24T17:19:15;1.98;;;1.62;;
60869;SDS011;46710;43.680;4.132;2023-01-24T17:21:41;1.10;;;1.00;;
60869;SDS011;46710;43.680;4.132;2023-01-24T17:24:07;1.58;;;1.17;;
60869;SDS011;46710;43.680;4.132;2023-01-24T17:26:34;1.08;;;0.90;;
60869;SDS011;46710;43.680;4.132;2023-01-24T17:29:00;1.77;;;1.30;;
60869;SDS011;46710;43.680;4.132;2023-01-24T17:31:26;1.30;;;1.20;;
60869;SDS011;46710;43.680;4.132;2023-01-24T17:33:53;3.97;;;2.40;;
60869;SDS011;46710;43.680;4.132;2023-01-24T17:36:20;3.25;;;1.40;;
60869;SDS011;46710;43.680;4.132;2023-01-24T17:38:46;5.07;;;1.25;;
60869;SDS011;46710;43.680;4.132;2023-01-24T17:41:13;2.67;;;1.50;;
60869;SDS011;46710;43.680;4.132;2023-01-24T17:43:40;2.47;;;1.60;;